sensor_id;sensor_type;location;lat;lon;timestamp;P1;durP1;ratioP1;P2;durP2;ratioP2
16354;SDS011;8287;51.644;8.494;2022-09-30T00:01:36;8.32;;;7.10;;
16354;SDS011;8287;51.644;8.494;2022-09-30T00:04:06;7.18;;;6.57;;
16354;SDS011;8287;51.644;8.494;2022-09-30T00:06:35;6.35;;;5.78;;
16354;SDS011;8287;51.644;8.494;2022-09-30T00:09:02;7.32;;;5.60;;
16354;SDS011;8287;51.644;8.494;2022-09-30T00:11:29;5.85;;;5.38;;
16354;SDS011;8287;51.644;8.494;2022-09-30T00:13:58;6.30;;;5.70;;
16354;SDS011;8287;51.644;8.494;2022-09-30T00:16:27;7.88;;;7.18;;
16354;SDS011;8287;51.644;8.494;2022-09-30T00:18:56;6.55;;;5.95;;
16354;SDS011;8287;51.644;8.494;2022-09-30T00:21:26;6.65;;;6.05;;
16354;SDS011;8287;51.644;8.494;2022-09-30T00:23:53;9.82;;;6.13;;
16354;SDS011;8287;51.644;8.494;2022-09-30T00:26:21;9.02;;;6.30;;
16354;SDS011;8287;51.644;8.494;2022-09-30T00:28:49;5.90;;;5.43;;
16354;SDS011;8287;51.644;8.494;2022-09-30T00:31:16;6.60;;;6.00;;
16354;SDS011;8287;51.644;8.494;2022-09-30T00:33:45;5.40;;;5.00;;
16354;SDS011;8287;51.644;8.494;2022-09-30T00:36:32;5.20;;;4.80;;
16354;SDS011;8287;51.644;8.494;2022-09-30T00:39:00;5.95;;;5.55;;
16354;SDS011;8287;51.644;8.494;2022-09-30T00:41:27;4.97;;;4.68;;
16354;SDS011;8287;51.644;8.494;2022-09-30T00:43:53;5.95;;;5.45;;
16354;SDS011;8287;51.644;8.494;2022-09-30T00:46:22;5.22;;;4.82;;
16354;SDS011;8287;51.644;8.494;2022-09-30T00:48:56;5.80;;;5.40;;
16354;SDS011;8287;51.644;8.494;2022-09-30T00:51:27;5.00;;;4.60;;
16354;SDS011;8287;51.644;8.494;2022-09-30T00:53:59;5.75;;;5.25;;
16354;SDS011;8287;51.644;8.494;2022-09-30T00:56:28;5.93;;;5.38;;
16354;SDS011;8287;51.644;8.494;2022-09-30T00:58:59;5.20;;;4.80;;
16354;SDS011;8287;51.644;8.494;2022-09-30T01:01:29;5.50;;;5.00;;
16354;SDS011;8287;51.644;8.494;2022-09-30T01:03:58;5.20;;;4.90;;
16354;SDS011;8287;51.644;8.494;2022-09-30T01:06:27;5.03;;;4.72;;
16354;SDS011;8287;51.644;8.494;2022-09-30T01:08:54;5.25;;;4.95;;
16354;SDS011;8287;51.644;8.494;2022-09-30T01:11:24;6.28;;;5.80;;
16354;SDS011;8287;51.644;8.494;2022-09-30T01:13:53;6.65;;;5.57;;
16354;SDS011;8287;51.644;8.494;2022-09-30T01:22:30;5.57;;;5.07;;
16354;SDS011;8287;51.644;8.494;2022-09-30T01:28:22;6.55;;;5.40;;
16354;SDS011;8287;51.644;8.494;2022-09-30T01:31:08;5.65;;;5.15;;
16354;SDS011;8287;51.644;8.494;2022-09-30T01:33:44;5.68;;;5.15;;
16354;SDS011;8287;51.644;8.494;2022-09-30T01:36:20;5.65;;;4.93;;
16354;SDS011;8287;51.644;8.494;2022-09-30T01:38:59;5.43;;;4.93;;
16354;SDS011;8287;51.644;8.494;2022-09-30T01:41:33;6.90;;;4.90;;
16354;SDS011;8287;51.644;8.494;2022-09-30T01:44:10;5.93;;;5.43;;
16354;SDS011;8287;51.644;8.494;2022-09-30T01:46:44;5.70;;;5.20;;
16354;SDS011;8287;51.644;8.494;2022-09-30T01:49:18;6.13;;;4.97;;
16354;SDS011;8287;51.644;8.494;2022-09-30T01:51:54;5.28;;;4.78;;
16354;SDS011;8287;51.644;8.494;2022-09-30T01:54:25;6.60;;;5.75;;
16354;SDS011;8287;51.644;8.494;2022-09-30T01:56:59;5.75;;;5.22;;
16354;SDS011;8287;51.644;8.494;2022-09-30T01:59:32;5.43;;;4.93;;
16354;SDS011;8287;51.644;8.494;2022-09-30T02:02:05;6.93;;;5.28;;
16354;SDS011;8287;51.644;8.494;2022-09-30T02:04:38;5.93;;;5.32;;
16354;SDS011;8287;51.644;8.494;2022-09-30T02:07:11;5.78;;;5.18;;
16354;SDS011;8287;51.644;8.494;2022-09-30T02:09:42;5.47;;;4.93;;
16354;SDS011;8287;51.644;8.494;2022-09-30T02:12:15;6.82;;;5.43;;
16354;SDS011;8287;51.644;8.494;2022-09-30T02:14:46;5.53;;;5.13;;
16354;SDS011;8287;51.644;8.494;2022-09-30T02:17:19;5.93;;;5.43;;
16354;SDS011;8287;51.644;8.494;2022-09-30T02:19:48;5.75;;;5.25;;
16354;SDS011;8287;51.644;8.494;2022-09-30T02:22:20;5.45;;;5.05;;
16354;SDS011;8287;51.644;8.494;2022-09-30T02:24:52;6.28;;;5.75;;
16354;SDS011;8287;51.644;8.494;2022-09-30T02:27:23;5.22;;;4.82;;
16354;SDS011;8287;51.644;8.494;2022-09-30T02:29:54;5.35;;;4.95;;
16354;SDS011;8287;51.644;8.494;2022-09-30T02:32:26;5.13;;;4.80;;
16354;SDS011;8287;51.644;8.494;2022-09-30T02:34:58;6.32;;;5.78;;
16354;SDS011;8287;51.644;8.494;2022-09-30T02:37:29;6.18;;;5.57;;
16354;SDS011;8287;51.644;8.494;2022-09-30T02:40:00;5.63;;;5.13;;
16354;SDS011;8287;51.644;8.494;2022-09-30T02:42:31;6.28;;;5.70;;
16354;SDS011;8287;51.644;8.494;2022-09-30T02:44:59;7.13;;;6.20;;
16354;SDS011;8287;51.644;8.494;2022-09-30T02:47:30;5.00;;;4.53;;
16354;SDS011;8287;51.644;8.494;2022-09-30T02:50:07;5.70;;;5.20;;
16354;SDS011;8287;51.644;8.494;2022-09-30T02:52:43;5.30;;;4.80;;
16354;SDS011;8287;51.644;8.494;2022-09-30T02:55:26;5.60;;;5.10;;
16354;SDS011;8287;51.644;8.494;2022-09-30T02:57:59;6.05;;;5.40;;
16354;SDS011;8287;51.644;8.494;2022-09-30T03:00:35;6.03;;;4.38;;
16354;SDS011;8287;51.644;8.494;2022-09-30T03:03:04;5.80;;;5.22;;
16354;SDS011;8287;51.644;8.494;2022-09-30T03:05:36;5.45;;;4.95;;
16354;SDS011;8287;51.644;8.494;2022-09-30T03:08:03;6.50;;;5.90;;
16354;SDS011;8287;51.644;8.494;2022-09-30T03:10:29;5.35;;;4.95;;
16354;SDS011;8287;51.644;8.494;2022-09-30T03:13:06;5.65;;;5.15;;
16354;SDS011;8287;51.644;8.494;2022-09-30T03:15:44;5.45;;;5.03;;
16354;SDS011;8287;51.644;8.494;2022-09-30T03:18:29;5.40;;;5.00;;
16354;SDS011;8287;51.644;8.494;2022-09-30T03:21:06;5.88;;;5.35;;
16354;SDS011;8287;51.644;8.494;2022-09-30T03:23:45;5.90;;;5.40;;
16354;SDS011;8287;51.644;8.494;2022-09-30T03:26:35;7.18;;;5.25;;
16354;SDS011;8287;51.644;8.494;2022-09-30T03:29:12;5.85;;;5.28;;
16354;SDS011;8287;51.644;8.494;2022-09-30T03:31:47;4.75;;;4.45;;
16354;SDS011;8287;51.644;8.494;2022-09-30T03:34:21;5.68;;;5.15;;
16354;SDS011;8287;51.644;8.494;2022-09-30T03:36:57;6.13;;;5.53;;
16354;SDS011;8287;51.644;8.494;2022-09-30T03:39:32;6.68;;;5.30;;
16354;SDS011;8287;51.644;8.494;2022-09-30T03:42:13;5.45;;;4.95;;
16354;SDS011;8287;51.644;8.494;2022-09-30T03:44:44;5.80;;;5.30;;
16354;SDS011;8287;51.644;8.494;2022-09-30T03:47:21;6.40;;;5.57;;
16354;SDS011;8287;51.644;8.494;2022-09-30T03:49:53;5.70;;;5.20;;
16354;SDS011;8287;51.644;8.494;2022-09-30T03:52:24;5.43;;;4.97;;
16354;SDS011;8287;51.644;8.494;2022-09-30T03:54:52;8.05;;;5.70;;
16354;SDS011;8287;51.644;8.494;2022-09-30T03:57:23;10.25;;;5.55;;
16354;SDS011;8287;51.644;8.494;2022-09-30T03:59:53;7.45;;;5.18;;
16354;SDS011;8287;51.644;8.494;2022-09-30T04:02:20;5.50;;;5.00;;
16354;SDS011;8287;51.644;8.494;2022-09-30T04:04:47;6.55;;;5.00;;
16354;SDS011;8287;51.644;8.494;2022-09-30T04:07:15;7.55;;;5.15;;
16354;SDS011;8287;51.644;8.494;2022-09-30T04:09:42;6.13;;;5.35;;
16354;SDS011;8287;51.644;8.494;2022-09-30T04:12:09;7.00;;;6.25;;
16354;SDS011;8287;51.644;8.494;2022-09-30T04:14:35;5.88;;;5.15;;
16354;SDS011;8287;51.644;8.494;2022-09-30T04:17:03;5.70;;;5.20;;
16354;SDS011;8287;51.644;8.494;2022-09-30T04:19:30;8.65;;;5.85;;
16354;SDS011;8287;51.644;8.494;2022-09-30T04:22:02;6.25;;;5.40;;
16354;SDS011;8287;51.644;8.494;2022-09-30T04:24:30;7.22;;;6.10;;
16354;SDS011;8287;51.644;8.494;2022-09-30T04:26:57;6.85;;;5.57;;
16354;SDS011;8287;51.644;8.494;2022-09-30T04:29:24;6.28;;;5.68;;
16354;SDS011;8287;51.644;8.494;2022-09-30T04:31:50;6.60;;;5.25;;
16354;SDS011;8287;51.644;8.494;2022-09-30T04:34:17;6.75;;;6.05;;
16354;SDS011;8287;51.644;8.494;2022-09-30T04:36:43;6.45;;;5.28;;
16354;SDS011;8287;51.644;8.494;2022-09-30T04:39:10;6.65;;;6.05;;
16354;SDS011;8287;51.644;8.494;2022-09-30T04:41:38;7.70;;;5.50;;
16354;SDS011;8287;51.644;8.494;2022-09-30T04:44:05;5.43;;;4.93;;
16354;SDS011;8287;51.644;8.494;2022-09-30T04:46:32;7.93;;;7.13;;
16354;SDS011;8287;51.644;8.494;2022-09-30T04:49:01;7.05;;;6.18;;
16354;SDS011;8287;51.644;8.494;2022-09-30T04:51:28;5.95;;;5.10;;
16354;SDS011;8287;51.644;8.494;2022-09-30T04:53:55;6.40;;;5.80;;
16354;SDS011;8287;51.644;8.494;2022-09-30T04:56:22;6.43;;;5.47;;
16354;SDS011;8287;51.644;8.494;2022-09-30T04:58:51;6.68;;;5.70;;
16354;SDS011;8287;51.644;8.494;2022-09-30T05:01:18;6.07;;;5.43;;
16354;SDS011;8287;51.644;8.494;2022-09-30T05:03:45;7.70;;;5.70;;
16354;SDS011;8287;51.644;8.494;2022-09-30T05:06:13;9.10;;;5.93;;
16354;SDS011;8287;51.644;8.494;2022-09-30T05:08:40;5.32;;;4.82;;
16354;SDS011;8287;51.644;8.494;2022-09-30T05:11:09;5.38;;;4.97;;
16354;SDS011;8287;51.644;8.494;2022-09-30T05:13:38;9.05;;;5.60;;
16354;SDS011;8287;51.644;8.494;2022-09-30T05:16:08;8.65;;;5.60;;
16354;SDS011;8287;51.644;8.494;2022-09-30T05:18:35;6.43;;;5.40;;
16354;SDS011;8287;51.644;8.494;2022-09-30T05:21:03;6.13;;;5.68;;
16354;SDS011;8287;51.644;8.494;2022-09-30T05:23:30;7.75;;;5.72;;
16354;SDS011;8287;51.644;8.494;2022-09-30T05:25:58;5.63;;;5.13;;
16354;SDS011;8287;51.644;8.494;2022-09-30T05:28:25;5.72;;;5.30;;
16354;SDS011;8287;51.644;8.494;2022-09-30T05:30:54;6.70;;;5.53;;
16354;SDS011;8287;51.644;8.494;2022-09-30T05:33:25;5.63;;;5.13;;
16354;SDS011;8287;51.644;8.494;2022-09-30T05:35:53;5.82;;;5.32;;
16354;SDS011;8287;51.644;8.494;2022-09-30T05:38:23;7.68;;;5.80;;
16354;SDS011;8287;51.644;8.494;2022-09-30T05:40:50;6.90;;;6.20;;
16354;SDS011;8287;51.644;8.494;2022-09-30T05:43:17;6.03;;;5.53;;
16354;SDS011;8287;51.644;8.494;2022-09-30T05:45:50;5.32;;;4.82;;
16354;SDS011;8287;51.644;8.494;2022-09-30T05:48:17;6.32;;;5.82;;
16354;SDS011;8287;51.644;8.494;2022-09-30T05:50:45;6.43;;;5.75;;
16354;SDS011;8287;51.644;8.494;2022-09-30T05:53:16;10.27;;;6.00;;
16354;SDS011;8287;51.644;8.494;2022-09-30T05:55:46;8.52;;;6.00;;
16354;SDS011;8287;51.644;8.494;2022-09-30T05:58:14;6.63;;;5.97;;
16354;SDS011;8287;51.644;8.494;2022-09-30T06:00:42;7.57;;;6.18;;
16354;SDS011;8287;51.644;8.494;2022-09-30T06:03:10;8.60;;;6.95;;
16354;SDS011;8287;51.644;8.494;2022-09-30T06:05:37;8.25;;;6.78;;
16354;SDS011;8287;51.644;8.494;2022-09-30T06:08:05;16.15;;;6.70;;
16354;SDS011;8287;51.644;8.494;2022-09-30T06:10:32;12.45;;;6.22;;
16354;SDS011;8287;51.644;8.494;2022-09-30T06:13:01;6.60;;;5.57;;
16354;SDS011;8287;51.644;8.494;2022-09-30T06:15:28;5.72;;;5.30;;
16354;SDS011;8287;51.644;8.494;2022-09-30T06:17:54;8.38;;;5.90;;
16354;SDS011;8287;51.644;8.494;2022-09-30T06:20:21;8.43;;;6.07;;
16354;SDS011;8287;51.644;8.494;2022-09-30T06:22:48;6.07;;;5.45;;
16354;SDS011;8287;51.644;8.494;2022-09-30T06:25:16;6.03;;;5.53;;
16354;SDS011;8287;51.644;8.494;2022-09-30T06:27:43;11.18;;;5.78;;
16354;SDS011;8287;51.644;8.494;2022-09-30T06:30:11;9.30;;;6.78;;
16354;SDS011;8287;51.644;8.494;2022-09-30T06:32:38;6.45;;;5.80;;
16354;SDS011;8287;51.644;8.494;2022-09-30T06:35:05;8.40;;;6.85;;
16354;SDS011;8287;51.644;8.494;2022-09-30T06:37:32;15.60;;;7.22;;
16354;SDS011;8287;51.644;8.494;2022-09-30T06:40:01;6.72;;;6.13;;
16354;SDS011;8287;51.644;8.494;2022-09-30T06:42:30;7.20;;;6.50;;
16354;SDS011;8287;51.644;8.494;2022-09-30T06:44:56;8.25;;;6.30;;
16354;SDS011;8287;51.644;8.494;2022-09-30T06:47:23;8.63;;;7.78;;
16354;SDS011;8287;51.644;8.494;2022-09-30T06:49:50;8.90;;;6.40;;
16354;SDS011;8287;51.644;8.494;2022-09-30T06:52:18;17.98;;;7.68;;
16354;SDS011;8287;51.644;8.494;2022-09-30T06:54:45;10.90;;;7.68;;
16354;SDS011;8287;51.644;8.494;2022-09-30T06:57:13;18.13;;;11.50;;
16354;SDS011;8287;51.644;8.494;2022-09-30T06:59:42;20.40;;;11.77;;
16354;SDS011;8287;51.644;8.494;2022-09-30T07:02:09;13.10;;;8.57;;
16354;SDS011;8287;51.644;8.494;2022-09-30T07:04:37;11.73;;;9.27;;
16354;SDS011;8287;51.644;8.494;2022-09-30T07:07:04;10.65;;;7.75;;
16354;SDS011;8287;51.644;8.494;2022-09-30T07:09:31;9.57;;;8.65;;
16354;SDS011;8287;51.644;8.494;2022-09-30T07:11:57;11.82;;;8.95;;
16354;SDS011;8287;51.644;8.494;2022-09-30T07:14:24;11.80;;;8.80;;
16354;SDS011;8287;51.644;8.494;2022-09-30T07:16:52;14.35;;;9.15;;
16354;SDS011;8287;51.644;8.494;2022-09-30T07:19:19;8.57;;;7.72;;
16354;SDS011;8287;51.644;8.494;2022-09-30T07:21:47;11.73;;;8.88;;
16354;SDS011;8287;51.644;8.494;2022-09-30T07:24:14;10.35;;;9.35;;
16354;SDS011;8287;51.644;8.494;2022-09-30T07:26:40;10.60;;;8.73;;
16354;SDS011;8287;51.644;8.494;2022-09-30T07:29:09;9.25;;;7.25;;
16354;SDS011;8287;51.644;8.494;2022-09-30T07:31:36;9.60;;;7.03;;
16354;SDS011;8287;51.644;8.494;2022-09-30T07:34:06;8.88;;;7.40;;
16354;SDS011;8287;51.644;8.494;2022-09-30T07:36:34;7.22;;;6.60;;
16354;SDS011;8287;51.644;8.494;2022-09-30T07:39:02;8.10;;;7.18;;
16354;SDS011;8287;51.644;8.494;2022-09-30T07:41:30;7.90;;;6.40;;
16354;SDS011;8287;51.644;8.494;2022-09-30T07:43:58;6.25;;;5.75;;
16354;SDS011;8287;51.644;8.494;2022-09-30T07:46:26;6.93;;;6.43;;
16354;SDS011;8287;51.644;8.494;2022-09-30T07:48:55;7.47;;;6.82;;
16354;SDS011;8287;51.644;8.494;2022-09-30T07:51:28;14.02;;;9.13;;
16354;SDS011;8287;51.644;8.494;2022-09-30T07:53:57;12.48;;;8.98;;
16354;SDS011;8287;51.644;8.494;2022-09-30T07:56:25;10.73;;;9.73;;
16354;SDS011;8287;51.644;8.494;2022-09-30T07:58:52;10.10;;;8.80;;
16354;SDS011;8287;51.644;8.494;2022-09-30T08:01:20;10.18;;;9.18;;
16354;SDS011;8287;51.644;8.494;2022-09-30T08:03:47;9.13;;;8.43;;
16354;SDS011;8287;51.644;8.494;2022-09-30T08:06:14;14.27;;;12.57;;
16354;SDS011;8287;51.644;8.494;2022-09-30T08:08:45;8.70;;;7.90;;
16354;SDS011;8287;51.644;8.494;2022-09-30T08:11:12;9.48;;;7.90;;
16354;SDS011;8287;51.644;8.494;2022-09-30T08:13:40;8.38;;;7.68;;
16354;SDS011;8287;51.644;8.494;2022-09-30T08:16:06;7.72;;;7.05;;
16354;SDS011;8287;51.644;8.494;2022-09-30T08:18:33;7.20;;;6.50;;
16354;SDS011;8287;51.644;8.494;2022-09-30T08:21:01;7.05;;;6.35;;
16354;SDS011;8287;51.644;8.494;2022-09-30T08:23:28;7.18;;;6.47;;
16354;SDS011;8287;51.644;8.494;2022-09-30T08:26:00;6.75;;;6.00;;
16354;SDS011;8287;51.644;8.494;2022-09-30T08:28:27;8.45;;;7.22;;
16354;SDS011;8287;51.644;8.494;2022-09-30T08:30:56;8.05;;;6.00;;
16354;SDS011;8287;51.644;8.494;2022-09-30T08:33:29;7.95;;;7.15;;
16354;SDS011;8287;51.644;8.494;2022-09-30T08:35:55;11.75;;;7.88;;
16354;SDS011;8287;51.644;8.494;2022-09-30T08:38:22;8.43;;;7.60;;
16354;SDS011;8287;51.644;8.494;2022-09-30T08:40:50;6.72;;;6.13;;
16354;SDS011;8287;51.644;8.494;2022-09-30T08:43:25;8.93;;;6.85;;
16354;SDS011;8287;51.644;8.494;2022-09-30T08:45:58;9.90;;;7.07;;
16354;SDS011;8287;51.644;8.494;2022-09-30T08:48:36;7.95;;;7.15;;
16354;SDS011;8287;51.644;8.494;2022-09-30T08:51:15;13.02;;;6.90;;
16354;SDS011;8287;51.644;8.494;2022-09-30T08:53:51;10.70;;;7.20;;
16354;SDS011;8287;51.644;8.494;2022-09-30T08:56:22;8.35;;;7.03;;
16354;SDS011;8287;51.644;8.494;2022-09-30T08:58:54;13.07;;;7.55;;
16354;SDS011;8287;51.644;8.494;2022-09-30T09:01:26;7.22;;;6.57;;
16354;SDS011;8287;51.644;8.494;2022-09-30T09:03:57;6.90;;;6.13;;
16354;SDS011;8287;51.644;8.494;2022-09-30T09:06:25;9.20;;;7.03;;
16354;SDS011;8287;51.644;8.494;2022-09-30T09:09:05;9.55;;;7.30;;
16354;SDS011;8287;51.644;8.494;2022-09-30T09:11:57;9.02;;;8.15;;
16354;SDS011;8287;51.644;8.494;2022-09-30T09:14:37;11.25;;;6.95;;
16354;SDS011;8287;51.644;8.494;2022-09-30T09:17:12;7.70;;;6.78;;
16354;SDS011;8287;51.644;8.494;2022-09-30T09:19:51;8.45;;;6.85;;
16354;SDS011;8287;51.644;8.494;2022-09-30T09:22:24;7.97;;;6.43;;
16354;SDS011;8287;51.644;8.494;2022-09-30T09:24:52;10.10;;;6.90;;
16354;SDS011;8287;51.644;8.494;2022-09-30T09:27:20;7.80;;;6.47;;
16354;SDS011;8287;51.644;8.494;2022-09-30T09:30:00;8.00;;;6.28;;
16354;SDS011;8287;51.644;8.494;2022-09-30T09:32:30;10.57;;;7.53;;
16354;SDS011;8287;51.644;8.494;2022-09-30T09:34:59;12.52;;;7.93;;
16354;SDS011;8287;51.644;8.494;2022-09-30T09:37:33;8.68;;;7.22;;
16354;SDS011;8287;51.644;8.494;2022-09-30T09:40:25;9.73;;;7.95;;
16354;SDS011;8287;51.644;8.494;2022-09-30T09:43:05;10.18;;;7.60;;
16354;SDS011;8287;51.644;8.494;2022-09-30T09:45:45;11.63;;;8.45;;
16354;SDS011;8287;51.644;8.494;2022-09-30T09:48:20;16.10;;;8.32;;
16354;SDS011;8287;51.644;8.494;2022-09-30T09:50:49;14.90;;;8.82;;
16354;SDS011;8287;51.644;8.494;2022-09-30T09:53:28;9.18;;;7.85;;
16354;SDS011;8287;51.644;8.494;2022-09-30T09:56:10;9.88;;;8.48;;
16354;SDS011;8287;51.644;8.494;2022-09-30T10:01:35;10.25;;;7.43;;
16354;SDS011;8287;51.644;8.494;2022-09-30T10:04:07;9.07;;;8.18;;
16354;SDS011;8287;51.644;8.494;2022-09-30T10:06:43;7.93;;;7.25;;
16354;SDS011;8287;51.644;8.494;2022-09-30T10:09:22;8.90;;;7.32;;
16354;SDS011;8287;51.644;8.494;2022-09-30T10:14:57;7.63;;;6.93;;
16354;SDS011;8287;51.644;8.494;2022-09-30T10:17:27;10.52;;;8.07;;
16354;SDS011;8287;51.644;8.494;2022-09-30T10:20:03;9.70;;;8.40;;
16354;SDS011;8287;51.644;8.494;2022-09-30T10:22:33;8.45;;;7.10;;
16354;SDS011;8287;51.644;8.494;2022-09-30T10:25:18;9.57;;;6.70;;
16354;SDS011;8287;51.644;8.494;2022-09-30T10:27:49;7.55;;;6.82;;
16354;SDS011;8287;51.644;8.494;2022-09-30T10:30:32;8.40;;;6.32;;
16354;SDS011;8287;51.644;8.494;2022-09-30T10:33:04;9.57;;;6.40;;
16354;SDS011;8287;51.644;8.494;2022-09-30T10:35:47;8.35;;;6.18;;
16354;SDS011;8287;51.644;8.494;2022-09-30T10:38:30;7.60;;;6.93;;
16354;SDS011;8287;51.644;8.494;2022-09-30T10:40:59;7.30;;;6.63;;
16354;SDS011;8287;51.644;8.494;2022-09-30T10:43:28;6.32;;;5.85;;
16354;SDS011;8287;51.644;8.494;2022-09-30T10:46:01;5.60;;;5.10;;
16354;SDS011;8287;51.644;8.494;2022-09-30T10:48:32;6.35;;;5.57;;
16354;SDS011;8287;51.644;8.494;2022-09-30T10:51:01;6.13;;;5.63;;
16354;SDS011;8287;51.644;8.494;2022-09-30T10:53:30;6.65;;;5.18;;
16354;SDS011;8287;51.644;8.494;2022-09-30T10:55:59;7.30;;;6.53;;
16354;SDS011;8287;51.644;8.494;2022-09-30T10:58:35;6.10;;;5.65;;
16354;SDS011;8287;51.644;8.494;2022-09-30T11:01:20;6.50;;;5.97;;
16354;SDS011;8287;51.644;8.494;2022-09-30T11:03:53;6.15;;;5.38;;
16354;SDS011;8287;51.644;8.494;2022-09-30T11:06:30;6.95;;;5.05;;
16354;SDS011;8287;51.644;8.494;2022-09-30T11:09:00;6.28;;;5.68;;
16354;SDS011;8287;51.644;8.494;2022-09-30T11:11:34;6.32;;;5.28;;
16354;SDS011;8287;51.644;8.494;2022-09-30T11:14:13;7.10;;;5.95;;
16354;SDS011;8287;51.644;8.494;2022-09-30T11:16:50;6.28;;;5.68;;
16354;SDS011;8287;51.644;8.494;2022-09-30T11:19:27;7.20;;;5.55;;
16354;SDS011;8287;51.644;8.494;2022-09-30T11:21:57;5.07;;;4.68;;
16354;SDS011;8287;51.644;8.494;2022-09-30T11:24:35;4.82;;;4.38;;
16354;SDS011;8287;51.644;8.494;2022-09-30T11:27:08;5.35;;;4.78;;
16354;SDS011;8287;51.644;8.494;2022-09-30T11:29:45;6.68;;;5.38;;
16354;SDS011;8287;51.644;8.494;2022-09-30T11:32:25;5.47;;;4.97;;
16354;SDS011;8287;51.644;8.494;2022-09-30T11:35:10;5.47;;;4.97;;
16354;SDS011;8287;51.644;8.494;2022-09-30T11:37:52;5.07;;;4.35;;
16354;SDS011;8287;51.644;8.494;2022-09-30T11:40:36;4.95;;;4.00;;
16354;SDS011;8287;51.644;8.494;2022-09-30T11:43:10;7.03;;;5.53;;
16354;SDS011;8287;51.644;8.494;2022-09-30T11:45:48;6.20;;;4.78;;
16354;SDS011;8287;51.644;8.494;2022-09-30T11:48:32;4.85;;;4.35;;
16354;SDS011;8287;51.644;8.494;2022-09-30T11:51:08;5.35;;;4.72;;
16354;SDS011;8287;51.644;8.494;2022-09-30T11:53:46;5.20;;;4.80;;
16354;SDS011;8287;51.644;8.494;2022-09-30T11:56:31;5.35;;;4.38;;
16354;SDS011;8287;51.644;8.494;2022-09-30T11:59:05;4.70;;;4.32;;
16354;SDS011;8287;51.644;8.494;2022-09-30T12:01:41;11.95;;;5.60;;
16354;SDS011;8287;51.644;8.494;2022-09-30T12:04:12;5.93;;;4.80;;
16354;SDS011;8287;51.644;8.494;2022-09-30T12:06:45;5.28;;;4.78;;
16354;SDS011;8287;51.644;8.494;2022-09-30T12:09:16;4.82;;;4.43;;
16354;SDS011;8287;51.644;8.494;2022-09-30T12:11:48;7.10;;;4.78;;
16354;SDS011;8287;51.644;8.494;2022-09-30T12:14:22;5.68;;;5.18;;
16354;SDS011;8287;51.644;8.494;2022-09-30T12:16:54;6.05;;;4.63;;
16354;SDS011;8287;51.644;8.494;2022-09-30T12:19:24;5.22;;;4.90;;
16354;SDS011;8287;51.644;8.494;2022-09-30T12:21:59;5.95;;;5.53;;
16354;SDS011;8287;51.644;8.494;2022-09-30T12:24:33;9.07;;;5.97;;
16354;SDS011;8287;51.644;8.494;2022-09-30T12:27:02;5.60;;;5.20;;
16354;SDS011;8287;51.644;8.494;2022-09-30T12:29:38;5.68;;;5.22;;
16354;SDS011;8287;51.644;8.494;2022-09-30T12:32:52;4.97;;;4.57;;
16354;SDS011;8287;51.644;8.494;2022-09-30T12:38:40;5.85;;;5.32;;
16354;SDS011;8287;51.644;8.494;2022-09-30T12:41:39;4.53;;;4.22;;
16354;SDS011;8287;51.644;8.494;2022-09-30T12:44:33;5.07;;;4.57;;
16354;SDS011;8287;51.644;8.494;2022-09-30T12:47:20;6.78;;;4.70;;
16354;SDS011;8287;51.644;8.494;2022-09-30T12:49:55;4.60;;;4.28;;
16354;SDS011;8287;51.644;8.494;2022-09-30T12:52:25;5.00;;;4.50;;
16354;SDS011;8287;51.644;8.494;2022-09-30T12:54:59;4.65;;;4.32;;
16354;SDS011;8287;51.644;8.494;2022-09-30T12:57:31;4.90;;;4.60;;
16354;SDS011;8287;51.644;8.494;2022-09-30T13:00:00;4.22;;;3.92;;
16354;SDS011;8287;51.644;8.494;2022-09-30T13:02:30;4.68;;;3.45;;
16354;SDS011;8287;51.644;8.494;2022-09-30T13:08:08;6.00;;;4.32;;
16354;SDS011;8287;51.644;8.494;2022-09-30T13:10:55;4.50;;;3.70;;
16354;SDS011;8287;51.644;8.494;2022-09-30T13:13:24;4.95;;;4.53;;
16354;SDS011;8287;51.644;8.494;2022-09-30T13:15:53;4.78;;;4.38;;
16354;SDS011;8287;51.644;8.494;2022-09-30T13:21:25;5.57;;;3.58;;
16354;SDS011;8287;51.644;8.494;2022-09-30T13:23:52;4.30;;;4.00;;
16354;SDS011;8287;51.644;8.494;2022-09-30T13:26:35;5.25;;;4.00;;
16354;SDS011;8287;51.644;8.494;2022-09-30T13:32:07;4.65;;;4.43;;
16354;SDS011;8287;51.644;8.494;2022-09-30T13:34:54;4.40;;;4.00;;
16354;SDS011;8287;51.644;8.494;2022-09-30T13:37:33;5.68;;;5.25;;
16354;SDS011;8287;51.644;8.494;2022-09-30T13:40:11;12.68;;;5.78;;
16354;SDS011;8287;51.644;8.494;2022-09-30T13:42:53;6.03;;;5.45;;
16354;SDS011;8287;51.644;8.494;2022-09-30T13:45:24;5.45;;;4.50;;
16354;SDS011;8287;51.644;8.494;2022-09-30T13:48:02;5.10;;;4.78;;
16354;SDS011;8287;51.644;8.494;2022-09-30T13:50:39;5.82;;;5.38;;
16354;SDS011;8287;51.644;8.494;2022-09-30T13:53:14;6.07;;;4.63;;
16354;SDS011;8287;51.644;8.494;2022-09-30T13:55:46;5.78;;;5.38;;
16354;SDS011;8287;51.644;8.494;2022-09-30T13:58:21;7.63;;;6.30;;
16354;SDS011;8287;51.644;8.494;2022-09-30T14:01:02;7.75;;;6.07;;
16354;SDS011;8287;51.644;8.494;2022-09-30T14:03:45;6.95;;;5.22;;
16354;SDS011;8287;51.644;8.494;2022-09-30T14:06:29;5.35;;;4.20;;
16354;SDS011;8287;51.644;8.494;2022-09-30T14:09:10;4.72;;;4.32;;
16354;SDS011;8287;51.644;8.494;2022-09-30T14:11:56;4.68;;;4.38;;
16354;SDS011;8287;51.644;8.494;2022-09-30T14:14:42;4.38;;;4.18;;
16354;SDS011;8287;51.644;8.494;2022-09-30T14:17:35;4.65;;;4.35;;
16354;SDS011;8287;51.644;8.494;2022-09-30T14:20:17;4.40;;;4.10;;
16354;SDS011;8287;51.644;8.494;2022-09-30T14:22:55;5.00;;;4.60;;
16354;SDS011;8287;51.644;8.494;2022-09-30T14:25:22;4.90;;;4.60;;
16354;SDS011;8287;51.644;8.494;2022-09-30T14:27:54;4.43;;;4.22;;
16354;SDS011;8287;51.644;8.494;2022-09-30T14:30:30;4.90;;;4.60;;
16354;SDS011;8287;51.644;8.494;2022-09-30T14:33:07;5.70;;;5.30;;
16354;SDS011;8287;51.644;8.494;2022-09-30T14:35:36;4.25;;;4.05;;
16354;SDS011;8287;51.644;8.494;2022-09-30T14:38:06;4.28;;;4.07;;
16354;SDS011;8287;51.644;8.494;2022-09-30T14:40:39;5.50;;;5.20;;
16354;SDS011;8287;51.644;8.494;2022-09-30T14:43:14;4.82;;;4.38;;
16354;SDS011;8287;51.644;8.494;2022-09-30T14:45:49;4.90;;;4.70;;
16354;SDS011;8287;51.644;8.494;2022-09-30T14:48:19;3.90;;;3.70;;
16354;SDS011;8287;51.644;8.494;2022-09-30T14:50:54;4.53;;;4.15;;
16354;SDS011;8287;51.644;8.494;2022-09-30T14:53:24;4.28;;;4.07;;
16354;SDS011;8287;51.644;8.494;2022-09-30T14:55:52;4.32;;;3.95;;
16354;SDS011;8287;51.644;8.494;2022-09-30T14:58:20;4.68;;;3.97;;
16354;SDS011;8287;51.644;8.494;2022-09-30T15:00:58;4.05;;;3.85;;
16354;SDS011;8287;51.644;8.494;2022-09-30T15:03:27;4.88;;;4.57;;
16354;SDS011;8287;51.644;8.494;2022-09-30T15:05:56;4.43;;;4.15;;
16354;SDS011;8287;51.644;8.494;2022-09-30T15:08:23;3.83;;;3.50;;
16354;SDS011;8287;51.644;8.494;2022-09-30T15:10:50;4.80;;;4.50;;
16354;SDS011;8287;51.644;8.494;2022-09-30T15:13:19;3.28;;;3.15;;
16354;SDS011;8287;51.644;8.494;2022-09-30T15:15:48;4.22;;;4.13;;
16354;SDS011;8287;51.644;8.494;2022-09-30T15:18:24;3.53;;;3.42;;
16354;SDS011;8287;51.644;8.494;2022-09-30T15:20:56;3.80;;;3.70;;
16354;SDS011;8287;51.644;8.494;2022-09-30T15:23:25;3.30;;;3.20;;
16354;SDS011;8287;51.644;8.494;2022-09-30T15:25:55;3.75;;;3.55;;
16354;SDS011;8287;51.644;8.494;2022-09-30T15:28:23;5.60;;;5.40;;
16354;SDS011;8287;51.644;8.494;2022-09-30T15:30:50;5.07;;;4.88;;
16354;SDS011;8287;51.644;8.494;2022-09-30T15:33:19;4.40;;;4.20;;
16354;SDS011;8287;51.644;8.494;2022-09-30T15:35:50;4.68;;;4.28;;
16354;SDS011;8287;51.644;8.494;2022-09-30T15:38:18;3.78;;;3.47;;
16354;SDS011;8287;51.644;8.494;2022-09-30T15:40:52;4.45;;;4.20;;
16354;SDS011;8287;51.644;8.494;2022-09-30T15:43:30;4.82;;;4.45;;
16354;SDS011;8287;51.644;8.494;2022-09-30T15:46:16;3.67;;;3.47;;
16354;SDS011;8287;51.644;8.494;2022-09-30T15:48:52;3.75;;;3.65;;
16354;SDS011;8287;51.644;8.494;2022-09-30T15:51:25;3.78;;;3.58;;
16354;SDS011;8287;51.644;8.494;2022-09-30T15:53:57;3.40;;;3.20;;
16354;SDS011;8287;51.644;8.494;2022-09-30T15:56:28;3.40;;;3.30;;
16354;SDS011;8287;51.644;8.494;2022-09-30T15:58:59;3.55;;;3.40;;